sensor_id;sensor_type;location;lat;lon;timestamp;P1;durP1;ratioP1;P2;durP2;ratioP2
22697;SDS011;11516;51.612;7.510;2023-06-22T00:01:49;8.70;;;6.43;;
22697;SDS011;11516;51.612;7.510;2023-06-22T00:04:15;8.17;;;6.13;;
22697;SDS011;11516;51.612;7.510;2023-06-22T00:06:41;8.67;;;6.33;;
22697;SDS011;11516;51.612;7.510;2023-06-22T00:09:06;7.88;;;6.28;;
22697;SDS011;11516;51.612;7.510;2023-06-22T00:11:32;9.45;;;6.55;;
22697;SDS011;11516;51.612;7.510;2023-06-22T00:13:58;8.45;;;6.57;;
22697;SDS011;11516;51.612;7.510;2023-06-22T00:16:24;8.77;;;6.88;;
22697;SDS011;11516;51.612;7.510;2023-06-22T00:18:50;7.93;;;6.88;;
22697;SDS011;11516;51.612;7.510;2023-06-22T00:21:16;7.88;;;6.65;;
22697;SDS011;11516;51.612;7.510;2023-06-22T00:23:41;9.18;;;6.45;;
22697;SDS011;11516;51.612;7.510;2023-06-22T00:26:08;10.60;;;6.28;;
22697;SDS011;11516;51.612;7.510;2023-06-22T00:28:33;10.13;;;6.03;;
22697;SDS011;11516;51.612;7.510;2023-06-22T00:30:59;9.30;;;6.83;;
22697;SDS011;11516;51.612;7.510;2023-06-22T00:33:25;9.00;;;6.75;;
22697;SDS011;11516;51.612;7.510;2023-06-22T00:35:53;9.05;;;6.88;;
22697;SDS011;11516;51.612;7.510;2023-06-22T00:38:19;10.17;;;7.20;;
22697;SDS011;11516;51.612;7.510;2023-06-22T00:40:45;8.23;;;6.90;;
22697;SDS011;11516;51.612;7.510;2023-06-22T00:43:10;10.43;;;7.00;;
22697;SDS011;11516;51.612;7.510;2023-06-22T00:45:36;7.10;;;6.07;;
22697;SDS011;11516;51.612;7.510;2023-06-22T00:48:01;8.37;;;6.57;;
22697;SDS011;11516;51.612;7.510;2023-06-22T00:50:31;9.90;;;6.93;;
22697;SDS011;11516;51.612;7.510;2023-06-22T00:53:01;11.30;;;7.00;;
22697;SDS011;11516;51.612;7.510;2023-06-22T00:55:33;9.65;;;6.85;;
22697;SDS011;11516;51.612;7.510;2023-06-22T00:58:03;9.18;;;7.10;;
22697;SDS011;11516;51.612;7.510;2023-06-22T01:00:33;11.98;;;7.28;;
22697;SDS011;11516;51.612;7.510;2023-06-22T01:02:58;8.17;;;6.57;;
22697;SDS011;11516;51.612;7.510;2023-06-22T01:05:24;9.27;;;7.22;;
22697;SDS011;11516;51.612;7.510;2023-06-22T01:10:31;10.00;;;8.00;;
22697;SDS011;11516;51.612;7.510;2023-06-22T01:13:06;9.68;;;7.97;;
22697;SDS011;11516;51.612;7.510;2023-06-22T01:15:40;9.88;;;8.00;;
22697;SDS011;11516;51.612;7.510;2023-06-22T01:18:19;10.57;;;7.70;;
22697;SDS011;11516;51.612;7.510;2023-06-22T01:20:46;9.43;;;7.30;;
22697;SDS011;11516;51.612;7.510;2023-06-22T01:29:03;11.07;;;8.68;;
22697;SDS011;11516;51.612;7.510;2023-06-22T01:31:31;9.82;;;8.70;;
22697;SDS011;11516;51.612;7.510;2023-06-22T01:34:00;10.18;;;8.27;;
22697;SDS011;11516;51.612;7.510;2023-06-22T01:36:28;9.80;;;8.23;;
22697;SDS011;11516;51.612;7.510;2023-06-22T01:38:55;12.02;;;8.85;;
22697;SDS011;11516;51.612;7.510;2023-06-22T01:41:24;12.23;;;9.50;;
22697;SDS011;11516;51.612;7.510;2023-06-22T01:43:51;11.07;;;8.50;;
22697;SDS011;11516;51.612;7.510;2023-06-22T01:46:18;11.38;;;8.25;;
22697;SDS011;11516;51.612;7.510;2023-06-22T01:48:45;12.02;;;8.70;;
22697;SDS011;11516;51.612;7.510;2023-06-22T01:51:11;11.27;;;8.80;;
22697;SDS011;11516;51.612;7.510;2023-06-22T01:53:37;11.73;;;9.18;;
22697;SDS011;11516;51.612;7.510;2023-06-22T01:56:02;12.37;;;8.87;;
22697;SDS011;11516;51.612;7.510;2023-06-22T01:58:29;12.32;;;9.63;;
22697;SDS011;11516;51.612;7.510;2023-06-22T02:00:58;10.82;;;8.98;;
22697;SDS011;11516;51.612;7.510;2023-06-22T02:03:39;12.18;;;9.40;;
22697;SDS011;11516;51.612;7.510;2023-06-22T02:06:11;12.13;;;9.30;;
22697;SDS011;11516;51.612;7.510;2023-06-22T02:08:47;11.77;;;9.30;;
22697;SDS011;11516;51.612;7.510;2023-06-22T02:11:15;12.70;;;9.35;;
22697;SDS011;11516;51.612;7.510;2023-06-22T02:13:43;14.38;;;9.88;;
22697;SDS011;11516;51.612;7.510;2023-06-22T02:16:13;11.27;;;9.45;;
22697;SDS011;11516;51.612;7.510;2023-06-22T02:18:47;13.05;;;10.30;;
22697;SDS011;11516;51.612;7.510;2023-06-22T02:21:17;11.05;;;9.25;;
22697;SDS011;11516;51.612;7.510;2023-06-22T02:23:43;12.52;;;9.13;;
22697;SDS011;11516;51.612;7.510;2023-06-22T02:26:08;12.67;;;9.93;;
22697;SDS011;11516;51.612;7.510;2023-06-22T02:28:34;12.00;;;9.30;;
22697;SDS011;11516;51.612;7.510;2023-06-22T02:31:00;10.85;;;8.40;;
22697;SDS011;11516;51.612;7.510;2023-06-22T02:33:26;10.80;;;8.27;;
22697;SDS011;11516;51.612;7.510;2023-06-22T02:35:52;11.70;;;9.88;;
22697;SDS011;11516;51.612;7.510;2023-06-22T02:38:18;11.80;;;9.60;;
22697;SDS011;11516;51.612;7.510;2023-06-22T02:40:44;11.20;;;9.50;;
22697;SDS011;11516;51.612;7.510;2023-06-22T02:43:10;11.38;;;9.45;;
22697;SDS011;11516;51.612;7.510;2023-06-22T02:45:35;11.75;;;9.23;;
22697;SDS011;11516;51.612;7.510;2023-06-22T02:48:01;11.18;;;9.88;;
22697;SDS011;11516;51.612;7.510;2023-06-22T02:50:26;12.43;;;9.80;;
22697;SDS011;11516;51.612;7.510;2023-06-22T02:52:52;12.68;;;9.68;;
22697;SDS011;11516;51.612;7.510;2023-06-22T02:55:17;12.40;;;9.77;;
22697;SDS011;11516;51.612;7.510;2023-06-22T02:57:43;11.27;;;9.48;;
22697;SDS011;11516;51.612;7.510;2023-06-22T03:00:10;13.88;;;9.95;;
22697;SDS011;11516;51.612;7.510;2023-06-22T03:02:45;11.68;;;9.77;;
22697;SDS011;11516;51.612;7.510;2023-06-22T03:05:12;11.38;;;9.52;;
22697;SDS011;11516;51.612;7.510;2023-06-22T03:07:39;11.07;;;9.88;;
22697;SDS011;11516;51.612;7.510;2023-06-22T03:10:09;11.63;;;10.15;;
22697;SDS011;11516;51.612;7.510;2023-06-22T03:12:35;13.45;;;10.07;;
22697;SDS011;11516;51.612;7.510;2023-06-22T03:15:02;12.47;;;10.93;;
22697;SDS011;11516;51.612;7.510;2023-06-22T03:17:29;12.00;;;10.70;;
22697;SDS011;11516;51.612;7.510;2023-06-22T03:19:55;13.85;;;10.70;;
22697;SDS011;11516;51.612;7.510;2023-06-22T03:22:20;14.35;;;10.80;;
22697;SDS011;11516;51.612;7.510;2023-06-22T03:24:46;15.77;;;11.25;;
22697;SDS011;11516;51.612;7.510;2023-06-22T03:27:11;12.23;;;10.33;;
22697;SDS011;11516;51.612;7.510;2023-06-22T03:29:37;13.77;;;11.13;;
22697;SDS011;11516;51.612;7.510;2023-06-22T03:32:02;13.27;;;11.27;;
22697;SDS011;11516;51.612;7.510;2023-06-22T03:34:29;12.60;;;10.07;;
22697;SDS011;11516;51.612;7.510;2023-06-22T03:36:58;15.82;;;11.13;;
22697;SDS011;11516;51.612;7.510;2023-06-22T03:39:24;13.20;;;10.70;;
22697;SDS011;11516;51.612;7.510;2023-06-22T03:41:50;12.60;;;10.63;;
22697;SDS011;11516;51.612;7.510;2023-06-22T03:44:15;13.67;;;10.53;;
22697;SDS011;11516;51.612;7.510;2023-06-22T03:46:41;12.93;;;10.63;;
22697;SDS011;11516;51.612;7.510;2023-06-22T03:49:06;12.93;;;11.37;;
22697;SDS011;11516;51.612;7.510;2023-06-22T03:51:32;16.80;;;12.67;;
22697;SDS011;11516;51.612;7.510;2023-06-22T03:53:57;15.43;;;12.87;;
22697;SDS011;11516;51.612;7.510;2023-06-22T03:56:23;15.57;;;12.23;;
22697;SDS011;11516;51.612;7.510;2023-06-22T03:58:48;15.40;;;12.53;;
22697;SDS011;11516;51.612;7.510;2023-06-22T04:01:14;15.47;;;11.73;;
22697;SDS011;11516;51.612;7.510;2023-06-22T04:03:41;14.57;;;11.85;;
22697;SDS011;11516;51.612;7.510;2023-06-22T04:06:07;14.40;;;11.47;;
22697;SDS011;11516;51.612;7.510;2023-06-22T04:08:33;14.27;;;11.67;;
22697;SDS011;11516;51.612;7.510;2023-06-22T04:10:59;14.70;;;12.27;;
22697;SDS011;11516;51.612;7.510;2023-06-22T04:13:24;13.97;;;11.80;;
22697;SDS011;11516;51.612;7.510;2023-06-22T04:15:50;15.73;;;11.50;;
22697;SDS011;11516;51.612;7.510;2023-06-22T04:18:15;14.33;;;12.07;;
22697;SDS011;11516;51.612;7.510;2023-06-22T04:20:41;17.40;;;12.47;;
22697;SDS011;11516;51.612;7.510;2023-06-22T04:23:06;14.47;;;12.13;;
22697;SDS011;11516;51.612;7.510;2023-06-22T04:25:32;15.90;;;13.03;;
22697;SDS011;11516;51.612;7.510;2023-06-22T04:27:57;14.73;;;12.20;;
22697;SDS011;11516;51.612;7.510;2023-06-22T04:30:25;14.30;;;11.83;;
22697;SDS011;11516;51.612;7.510;2023-06-22T04:32:50;13.40;;;11.73;;
22697;SDS011;11516;51.612;7.510;2023-06-22T04:35:23;14.02;;;12.13;;
22697;SDS011;11516;51.612;7.510;2023-06-22T04:37:49;13.88;;;12.13;;
22697;SDS011;11516;51.612;7.510;2023-06-22T04:40:14;13.80;;;12.40;;
22697;SDS011;11516;51.612;7.510;2023-06-22T04:42:40;13.77;;;12.20;;
22697;SDS011;11516;51.612;7.510;2023-06-22T04:45:18;14.30;;;11.88;;
22697;SDS011;11516;51.612;7.510;2023-06-22T04:47:44;14.75;;;12.38;;
22697;SDS011;11516;51.612;7.510;2023-06-22T04:50:11;14.10;;;12.32;;
22697;SDS011;11516;51.612;7.510;2023-06-22T04:52:37;14.57;;;12.30;;
22697;SDS011;11516;51.612;7.510;2023-06-22T04:55:02;14.82;;;12.55;;
22697;SDS011;11516;51.612;7.510;2023-06-22T04:57:28;13.87;;;11.87;;
22697;SDS011;11516;51.612;7.510;2023-06-22T04:59:57;13.20;;;11.85;;
22697;SDS011;11516;51.612;7.510;2023-06-22T05:02:37;14.82;;;11.93;;
22697;SDS011;11516;51.612;7.510;2023-06-22T05:05:04;14.38;;;11.35;;
22697;SDS011;11516;51.612;7.510;2023-06-22T05:07:32;14.57;;;12.25;;
22697;SDS011;11516;51.612;7.510;2023-06-22T05:09:58;14.73;;;12.10;;
22697;SDS011;11516;51.612;7.510;2023-06-22T05:12:24;14.50;;;12.00;;
22697;SDS011;11516;51.612;7.510;2023-06-22T05:14:49;14.10;;;11.87;;
22697;SDS011;11516;51.612;7.510;2023-06-22T05:17:15;14.88;;;12.18;;
22697;SDS011;11516;51.612;7.510;2023-06-22T05:19:44;14.75;;;12.18;;
22697;SDS011;11516;51.612;7.510;2023-06-22T05:22:13;15.45;;;11.68;;
22697;SDS011;11516;51.612;7.510;2023-06-22T05:24:39;15.97;;;12.50;;
22697;SDS011;11516;51.612;7.510;2023-06-22T05:27:05;13.57;;;12.13;;
22697;SDS011;11516;51.612;7.510;2023-06-22T05:29:31;14.40;;;11.82;;
22697;SDS011;11516;51.612;7.510;2023-06-22T05:31:56;15.67;;;12.37;;
22697;SDS011;11516;51.612;7.510;2023-06-22T05:34:22;15.83;;;12.10;;
22697;SDS011;11516;51.612;7.510;2023-06-22T05:36:47;34.20;;;13.20;;
22697;SDS011;11516;51.612;7.510;2023-06-22T05:39:13;17.20;;;12.00;;
22697;SDS011;11516;51.612;7.510;2023-06-22T05:41:40;20.63;;;11.75;;
22697;SDS011;11516;51.612;7.510;2023-06-22T05:44:06;21.40;;;12.45;;
22697;SDS011;11516;51.612;7.510;2023-06-22T05:46:31;18.13;;;12.00;;
22697;SDS011;11516;51.612;7.510;2023-06-22T05:48:57;16.80;;;11.90;;
22697;SDS011;11516;51.612;7.510;2023-06-22T05:51:23;13.52;;;11.65;;
22697;SDS011;11516;51.612;7.510;2023-06-22T05:53:48;17.37;;;11.43;;
22697;SDS011;11516;51.612;7.510;2023-06-22T05:56:17;15.40;;;11.80;;
22697;SDS011;11516;51.612;7.510;2023-06-22T05:58:43;12.65;;;11.35;;
22697;SDS011;11516;51.612;7.510;2023-06-22T06:01:09;13.02;;;11.63;;
22697;SDS011;11516;51.612;7.510;2023-06-22T06:03:34;13.48;;;11.52;;
22697;SDS011;11516;51.612;7.510;2023-06-22T06:06:05;15.53;;;11.77;;
22697;SDS011;11516;51.612;7.510;2023-06-22T06:08:35;15.07;;;12.15;;
22697;SDS011;11516;51.612;7.510;2023-06-22T06:11:01;16.92;;;12.00;;
22697;SDS011;11516;51.612;7.510;2023-06-22T06:13:27;14.33;;;11.47;;
22697;SDS011;11516;51.612;7.510;2023-06-22T06:15:53;15.43;;;10.93;;
22697;SDS011;11516;51.612;7.510;2023-06-22T06:18:20;14.57;;;11.05;;
22697;SDS011;11516;51.612;7.510;2023-06-22T06:20:46;14.07;;;10.45;;
22697;SDS011;11516;51.612;7.510;2023-06-22T06:23:11;14.98;;;10.15;;
22697;SDS011;11516;51.612;7.510;2023-06-22T06:25:37;12.52;;;10.30;;
22697;SDS011;11516;51.612;7.510;2023-06-22T06:28:03;11.60;;;10.13;;
22697;SDS011;11516;51.612;7.510;2023-06-22T06:30:29;13.10;;;10.43;;
22697;SDS011;11516;51.612;7.510;2023-06-22T06:32:54;12.43;;;9.80;;
22697;SDS011;11516;51.612;7.510;2023-06-22T06:35:20;14.38;;;10.82;;
22697;SDS011;11516;51.612;7.510;2023-06-22T06:37:47;14.37;;;10.70;;
22697;SDS011;11516;51.612;7.510;2023-06-22T06:40:15;13.38;;;10.80;;
22697;SDS011;11516;51.612;7.510;2023-06-22T06:42:43;13.52;;;10.68;;
22697;SDS011;11516;51.612;7.510;2023-06-22T06:45:15;13.23;;;10.20;;
22697;SDS011;11516;51.612;7.510;2023-06-22T06:47:48;14.23;;;11.20;;
22697;SDS011;11516;51.612;7.510;2023-06-22T06:50:15;13.97;;;10.80;;
22697;SDS011;11516;51.612;7.510;2023-06-22T06:52:41;11.70;;;10.32;;
22697;SDS011;11516;51.612;7.510;2023-06-22T06:55:07;14.30;;;11.32;;
22697;SDS011;11516;51.612;7.510;2023-06-22T06:57:36;14.18;;;11.32;;
22697;SDS011;11516;51.612;7.510;2023-06-22T07:00:07;15.25;;;11.20;;
22697;SDS011;11516;51.612;7.510;2023-06-22T07:02:37;16.80;;;11.77;;
22697;SDS011;11516;51.612;7.510;2023-06-22T07:05:04;13.43;;;11.40;;
22697;SDS011;11516;51.612;7.510;2023-06-22T07:07:31;16.33;;;11.30;;
22697;SDS011;11516;51.612;7.510;2023-06-22T07:09:57;14.85;;;12.57;;
22697;SDS011;11516;51.612;7.510;2023-06-22T07:12:22;14.00;;;12.17;;
22697;SDS011;11516;51.612;7.510;2023-06-22T07:14:48;14.57;;;12.38;;
22697;SDS011;11516;51.612;7.510;2023-06-22T07:17:13;16.80;;;13.98;;
22697;SDS011;11516;51.612;7.510;2023-06-22T07:19:39;16.30;;;13.07;;
22697;SDS011;11516;51.612;7.510;2023-06-22T07:22:05;15.95;;;13.20;;
22697;SDS011;11516;51.612;7.510;2023-06-22T07:24:30;16.50;;;13.35;;
22697;SDS011;11516;51.612;7.510;2023-06-22T07:26:57;17.60;;;13.15;;
22697;SDS011;11516;51.612;7.510;2023-06-22T07:29:24;16.13;;;12.53;;
22697;SDS011;11516;51.612;7.510;2023-06-22T07:31:50;16.38;;;13.80;;
22697;SDS011;11516;51.612;7.510;2023-06-22T07:34:21;17.45;;;13.85;;
22697;SDS011;11516;51.612;7.510;2023-06-22T07:36:47;15.88;;;13.77;;
22697;SDS011;11516;51.612;7.510;2023-06-22T07:39:12;16.27;;;13.97;;
22697;SDS011;11516;51.612;7.510;2023-06-22T07:41:39;18.90;;;15.70;;
22697;SDS011;11516;51.612;7.510;2023-06-22T07:44:08;19.70;;;16.48;;
22697;SDS011;11516;51.612;7.510;2023-06-22T07:46:33;21.80;;;17.80;;
22697;SDS011;11516;51.612;7.510;2023-06-22T07:48:59;21.87;;;16.87;;
22697;SDS011;11516;51.612;7.510;2023-06-22T07:51:24;17.40;;;15.17;;
22697;SDS011;11516;51.612;7.510;2023-06-22T07:53:50;20.10;;;15.45;;
22697;SDS011;11516;51.612;7.510;2023-06-22T07:56:16;17.60;;;15.10;;
22697;SDS011;11516;51.612;7.510;2023-06-22T07:58:45;20.75;;;15.85;;
22697;SDS011;11516;51.612;7.510;2023-06-22T08:01:11;17.73;;;15.10;;
22697;SDS011;11516;51.612;7.510;2023-06-22T08:03:37;22.25;;;16.50;;
22697;SDS011;11516;51.612;7.510;2023-06-22T08:06:04;19.75;;;15.73;;
22697;SDS011;11516;51.612;7.510;2023-06-22T08:08:30;17.83;;;15.48;;
22697;SDS011;11516;51.612;7.510;2023-06-22T08:10:56;18.43;;;16.43;;
22697;SDS011;11516;51.612;7.510;2023-06-22T08:13:22;19.47;;;15.87;;
22697;SDS011;11516;51.612;7.510;2023-06-22T08:15:47;19.00;;;16.57;;
22697;SDS011;11516;51.612;7.510;2023-06-22T08:18:13;17.27;;;15.45;;
22697;SDS011;11516;51.612;7.510;2023-06-22T08:20:39;18.60;;;16.60;;
22697;SDS011;11516;51.612;7.510;2023-06-22T08:23:05;23.63;;;18.43;;
22697;SDS011;11516;51.612;7.510;2023-06-22T08:25:34;22.05;;;17.40;;
22697;SDS011;11516;51.612;7.510;2023-06-22T08:28:00;20.42;;;17.30;;
22697;SDS011;11516;51.612;7.510;2023-06-22T08:30:27;19.60;;;17.45;;
22697;SDS011;11516;51.612;7.510;2023-06-22T08:32:53;18.43;;;16.53;;
22697;SDS011;11516;51.612;7.510;2023-06-22T08:35:20;20.77;;;17.17;;
22697;SDS011;11516;51.612;7.510;2023-06-22T08:37:47;18.75;;;16.80;;
22697;SDS011;11516;51.612;7.510;2023-06-22T08:40:17;19.85;;;16.95;;
22697;SDS011;11516;51.612;7.510;2023-06-22T08:42:44;19.02;;;17.00;;
22697;SDS011;11516;51.612;7.510;2023-06-22T08:45:10;19.35;;;16.88;;
22697;SDS011;11516;51.612;7.510;2023-06-22T08:47:36;21.40;;;18.40;;
22697;SDS011;11516;51.612;7.510;2023-06-22T08:50:01;21.38;;;16.85;;
22697;SDS011;11516;51.612;7.510;2023-06-22T08:52:28;22.17;;;19.02;;
22697;SDS011;11516;51.612;7.510;2023-06-22T08:54:53;44.23;;;18.23;;
22697;SDS011;11516;51.612;7.510;2023-06-22T08:57:20;21.63;;;17.00;;
22697;SDS011;11516;51.612;7.510;2023-06-22T08:59:46;18.43;;;16.43;;
22697;SDS011;11516;51.612;7.510;2023-06-22T09:02:11;17.00;;;15.20;;
22697;SDS011;11516;51.612;7.510;2023-06-22T09:04:37;17.87;;;15.23;;
22697;SDS011;11516;51.612;7.510;2023-06-22T09:07:03;17.63;;;14.57;;
22697;SDS011;11516;51.612;7.510;2023-06-22T09:09:29;17.35;;;14.48;;
22697;SDS011;11516;51.612;7.510;2023-06-22T09:11:55;18.47;;;15.00;;
22697;SDS011;11516;51.612;7.510;2023-06-22T09:14:20;15.50;;;13.90;;
22697;SDS011;11516;51.612;7.510;2023-06-22T09:16:46;16.03;;;14.20;;
22697;SDS011;11516;51.612;7.510;2023-06-22T09:19:11;18.13;;;14.70;;
22697;SDS011;11516;51.612;7.510;2023-06-22T09:21:37;18.15;;;13.70;;
22697;SDS011;11516;51.612;7.510;2023-06-22T09:24:02;14.30;;;12.87;;
22697;SDS011;11516;51.612;7.510;2023-06-22T09:26:28;17.17;;;13.33;;
22697;SDS011;11516;51.612;7.510;2023-06-22T09:28:54;14.57;;;13.00;;
22697;SDS011;11516;51.612;7.510;2023-06-22T09:31:20;14.77;;;11.55;;
22697;SDS011;11516;51.612;7.510;2023-06-22T09:33:53;14.10;;;11.88;;
22697;SDS011;11516;51.612;7.510;2023-06-22T09:36:19;13.55;;;11.38;;
22697;SDS011;11516;51.612;7.510;2023-06-22T09:38:45;13.33;;;10.20;;
22697;SDS011;11516;51.612;7.510;2023-06-22T09:41:12;13.38;;;10.10;;
22697;SDS011;11516;51.612;7.510;2023-06-22T09:43:37;13.98;;;9.98;;
22697;SDS011;11516;51.612;7.510;2023-06-22T09:46:03;12.77;;;10.33;;
22697;SDS011;11516;51.612;7.510;2023-06-22T09:48:28;12.40;;;10.35;;
22697;SDS011;11516;51.612;7.510;2023-06-22T09:50:57;11.88;;;10.68;;
22697;SDS011;11516;51.612;7.510;2023-06-22T09:53:22;11.53;;;9.13;;
22697;SDS011;11516;51.612;7.510;2023-06-22T09:55:48;12.07;;;9.17;;
22697;SDS011;11516;51.612;7.510;2023-06-22T09:58:13;17.17;;;13.38;;
22697;SDS011;11516;51.612;7.510;2023-06-22T10:00:39;10.10;;;8.30;;
22697;SDS011;11516;51.612;7.510;2023-06-22T10:03:06;11.23;;;9.07;;
22697;SDS011;11516;51.612;7.510;2023-06-22T10:05:32;11.25;;;9.75;;
22697;SDS011;11516;51.612;7.510;2023-06-22T10:07:58;11.40;;;9.30;;
22697;SDS011;11516;51.612;7.510;2023-06-22T10:10:23;10.07;;;8.43;;
22697;SDS011;11516;51.612;7.510;2023-06-22T10:12:54;9.30;;;8.07;;
22697;SDS011;11516;51.612;7.510;2023-06-22T10:15:21;9.63;;;8.07;;
22697;SDS011;11516;51.612;7.510;2023-06-22T10:17:46;10.10;;;8.50;;
22697;SDS011;11516;51.612;7.510;2023-06-22T10:20:12;12.47;;;8.50;;
22697;SDS011;11516;51.612;7.510;2023-06-22T10:22:38;11.23;;;8.53;;
22697;SDS011;11516;51.612;7.510;2023-06-22T10:25:09;8.35;;;7.45;;
22697;SDS011;11516;51.612;7.510;2023-06-22T10:27:36;9.70;;;7.80;;
22697;SDS011;11516;51.612;7.510;2023-06-22T10:30:02;9.13;;;8.23;;
22697;SDS011;11516;51.612;7.510;2023-06-22T10:32:30;12.20;;;9.77;;
22697;SDS011;11516;51.612;7.510;2023-06-22T10:34:55;9.83;;;8.47;;
22697;SDS011;11516;51.612;7.510;2023-06-22T10:37:21;9.00;;;7.93;;
22697;SDS011;11516;51.612;7.510;2023-06-22T10:39:47;13.63;;;10.27;;
22697;SDS011;11516;51.612;7.510;2023-06-22T10:42:12;11.82;;;9.75;;
22697;SDS011;11516;51.612;7.510;2023-06-22T10:44:38;12.57;;;11.27;;
22697;SDS011;11516;51.612;7.510;2023-06-22T10:47:06;13.73;;;11.90;;
22697;SDS011;11516;51.612;7.510;2023-06-22T10:49:31;12.70;;;11.23;;
22697;SDS011;11516;51.612;7.510;2023-06-22T10:51:57;11.38;;;9.60;;
22697;SDS011;11516;51.612;7.510;2023-06-22T10:54:23;11.43;;;9.23;;
22697;SDS011;11516;51.612;7.510;2023-06-22T10:56:48;12.00;;;10.53;;
22697;SDS011;11516;51.612;7.510;2023-06-22T10:59:14;11.25;;;10.05;;
22697;SDS011;11516;51.612;7.510;2023-06-22T11:01:39;9.90;;;7.85;;
22697;SDS011;11516;51.612;7.510;2023-06-22T11:04:05;8.20;;;7.30;;
22697;SDS011;11516;51.612;7.510;2023-06-22T11:06:30;9.80;;;7.43;;
22697;SDS011;11516;51.612;7.510;2023-06-22T11:08:56;10.40;;;7.77;;
22697;SDS011;11516;51.612;7.510;2023-06-22T11:11:23;10.15;;;7.88;;
22697;SDS011;11516;51.612;7.510;2023-06-22T11:13:48;9.67;;;7.97;;
22697;SDS011;11516;51.612;7.510;2023-06-22T11:16:14;8.20;;;7.40;;
22697;SDS011;11516;51.612;7.510;2023-06-22T11:18:39;8.20;;;7.40;;
22697;SDS011;11516;51.612;7.510;2023-06-22T11:21:05;10.27;;;7.87;;
22697;SDS011;11516;51.612;7.510;2023-06-22T11:23:30;9.73;;;8.70;;
22697;SDS011;11516;51.612;7.510;2023-06-22T11:25:56;9.80;;;8.43;;
22697;SDS011;11516;51.612;7.510;2023-06-22T11:28:21;9.95;;;8.88;;
22697;SDS011;11516;51.612;7.510;2023-06-22T11:30:47;9.73;;;8.10;;
22697;SDS011;11516;51.612;7.510;2023-06-22T11:33:12;9.20;;;8.00;;
22697;SDS011;11516;51.612;7.510;2023-06-22T11:35:38;8.32;;;7.30;;
22697;SDS011;11516;51.612;7.510;2023-06-22T11:38:03;7.33;;;6.63;;
22697;SDS011;11516;51.612;7.510;2023-06-22T11:40:29;7.82;;;6.32;;
22697;SDS011;11516;51.612;7.510;2023-06-22T11:42:55;6.80;;;5.82;;
22697;SDS011;11516;51.612;7.510;2023-06-22T11:45:21;9.50;;;5.87;;
22697;SDS011;11516;51.612;7.510;2023-06-22T11:47:46;8.00;;;6.47;;
22697;SDS011;11516;51.612;7.510;2023-06-22T11:50:12;10.18;;;6.47;;
22697;SDS011;11516;51.612;7.510;2023-06-22T11:52:39;11.63;;;7.13;;
22697;SDS011;11516;51.612;7.510;2023-06-22T11:55:05;9.45;;;7.40;;
22697;SDS011;11516;51.612;7.510;2023-06-22T11:57:35;9.45;;;7.10;;
22697;SDS011;11516;51.612;7.510;2023-06-22T12:00:02;11.75;;;8.48;;
22697;SDS011;11516;51.612;7.510;2023-06-22T12:02:40;11.73;;;8.57;;
22697;SDS011;11516;51.612;7.510;2023-06-22T12:05:06;11.93;;;8.90;;
22697;SDS011;11516;51.612;7.510;2023-06-22T12:07:33;11.88;;;9.52;;
22697;SDS011;11516;51.612;7.510;2023-06-22T12:09:58;11.25;;;9.93;;
22697;SDS011;11516;51.612;7.510;2023-06-22T12:12:24;13.10;;;10.30;;
22697;SDS011;11516;51.612;7.510;2023-06-22T12:14:49;13.30;;;10.57;;
22697;SDS011;11516;51.612;7.510;2023-06-22T12:17:15;16.60;;;12.77;;
22697;SDS011;11516;51.612;7.510;2023-06-22T12:19:40;16.33;;;11.17;;
22697;SDS011;11516;51.612;7.510;2023-06-22T12:22:06;14.68;;;11.65;;
22697;SDS011;11516;51.612;7.510;2023-06-22T12:24:31;12.85;;;11.48;;
22697;SDS011;11516;51.612;7.510;2023-06-22T12:26:57;15.37;;;12.00;;
22697;SDS011;11516;51.612;7.510;2023-06-22T12:29:22;15.90;;;12.47;;
22697;SDS011;11516;51.612;7.510;2023-06-22T12:31:48;15.83;;;12.77;;
22697;SDS011;11516;51.612;7.510;2023-06-22T12:34:13;16.60;;;12.57;;
22697;SDS011;11516;51.612;7.510;2023-06-22T12:36:39;16.30;;;13.13;;
22697;SDS011;11516;51.612;7.510;2023-06-22T12:39:05;17.13;;;13.68;;
22697;SDS011;11516;51.612;7.510;2023-06-22T12:41:31;20.17;;;15.63;;
22697;SDS011;11516;51.612;7.510;2023-06-22T12:43:57;17.33;;;14.20;;
22697;SDS011;11516;51.612;7.510;2023-06-22T12:46:22;16.90;;;14.70;;
22697;SDS011;11516;51.612;7.510;2023-06-22T12:48:48;18.38;;;15.05;;
22697;SDS011;11516;51.612;7.510;2023-06-22T12:51:19;17.02;;;14.77;;
22697;SDS011;11516;51.612;7.510;2023-06-22T12:53:45;19.13;;;15.02;;
22697;SDS011;11516;51.612;7.510;2023-06-22T12:56:11;18.60;;;15.43;;
22697;SDS011;11516;51.612;7.510;2023-06-22T12:58:36;16.35;;;14.02;;
22697;SDS011;11516;51.612;7.510;2023-06-22T13:01:02;15.45;;;13.77;;
22697;SDS011;11516;51.612;7.510;2023-06-22T13:03:27;18.10;;;14.13;;
22697;SDS011;11516;51.612;7.510;2023-06-22T13:05:53;18.37;;;14.87;;
22697;SDS011;11516;51.612;7.510;2023-06-22T13:08:19;15.52;;;13.77;;
22697;SDS011;11516;51.612;7.510;2023-06-22T13:10:44;17.73;;;14.27;;
22697;SDS011;11516;51.612;7.510;2023-06-22T13:13:10;17.20;;;13.57;;
22697;SDS011;11516;51.612;7.510;2023-06-22T13:15:35;14.83;;;13.10;;
22697;SDS011;11516;51.612;7.510;2023-06-22T13:18:01;16.23;;;13.53;;
22697;SDS011;11516;51.612;7.510;2023-06-22T13:20:28;15.70;;;12.82;;
22697;SDS011;11516;51.612;7.510;2023-06-22T13:22:54;15.60;;;13.13;;
22697;SDS011;11516;51.612;7.510;2023-06-22T13:25:21;15.82;;;13.15;;
22697;SDS011;11516;51.612;7.510;2023-06-22T13:27:48;16.88;;;13.60;;
22697;SDS011;11516;51.612;7.510;2023-06-22T13:30:15;14.55;;;12.52;;
22697;SDS011;11516;51.612;7.510;2023-06-22T13:32:40;14.05;;;12.35;;
22697;SDS011;11516;51.612;7.510;2023-06-22T13:35:07;12.65;;;11.20;;
22697;SDS011;11516;51.612;7.510;2023-06-22T13:37:36;12.23;;;10.85;;
22697;SDS011;11516;51.612;7.510;2023-06-22T13:40:02;13.40;;;11.80;;
22697;SDS011;11516;51.612;7.510;2023-06-22T13:42:30;13.10;;;11.40;;
22697;SDS011;11516;51.612;7.510;2023-06-22T13:44:56;13.70;;;9.97;;
22697;SDS011;11516;51.612;7.510;2023-06-22T13:47:21;11.00;;;9.77;;
22697;SDS011;11516;51.612;7.510;2023-06-22T13:49:47;14.80;;;11.77;;
22697;SDS011;11516;51.612;7.510;2023-06-22T13:52:12;10.90;;;9.73;;
22697;SDS011;11516;51.612;7.510;2023-06-22T13:54:38;10.98;;;9.55;;
22697;SDS011;11516;51.612;7.510;2023-06-22T13:57:04;11.97;;;10.30;;
22697;SDS011;11516;51.612;7.510;2023-06-22T13:59:29;12.87;;;10.73;;
22697;SDS011;11516;51.612;7.510;2023-06-22T14:01:55;12.40;;;11.10;;
22697;SDS011;11516;51.612;7.510;2023-06-22T14:04:22;13.17;;;10.77;;
22697;SDS011;11516;51.612;7.510;2023-06-22T14:06:48;12.32;;;10.80;;
22697;SDS011;11516;51.612;7.510;2023-06-22T14:09:14;13.32;;;11.93;;
22697;SDS011;11516;51.612;7.510;2023-06-22T14:11:40;14.93;;;13.33;;
22697;SDS011;11516;51.612;7.510;2023-06-22T14:14:05;14.93;;;13.35;;
22697;SDS011;11516;51.612;7.510;2023-06-22T14:16:31;15.88;;;14.18;;
22697;SDS011;11516;51.612;7.510;2023-06-22T14:18:56;16.27;;;13.83;;
22697;SDS011;11516;51.612;7.510;2023-06-22T14:21:22;16.67;;;14.60;;
22697;SDS011;11516;51.612;7.510;2023-06-22T14:23:47;17.10;;;14.70;;
22697;SDS011;11516;51.612;7.510;2023-06-22T14:26:17;16.65;;;14.95;;
22697;SDS011;11516;51.612;7.510;2023-06-22T14:28:44;16.90;;;15.15;;
22697;SDS011;11516;51.612;7.510;2023-06-22T14:31:13;16.17;;;14.50;;
22697;SDS011;11516;51.612;7.510;2023-06-22T14:33:39;16.40;;;14.75;;